»·PEaware :: N2Q KRNO-KSLC

N2Q :: KRNO-KSLC

FLIGHT INFORMATION

Flight Status: Arrived
Operator: Privately registered:
United States
More flights under this callsign
Pilot: Max W. (2591)
Aircraft: GATES LEARJET LEARJET 45
(LJ45)
More flights by this aircraft type
Origin: KRNO Reno/Tahoe Intl
United States
Destination: KSLC Salt Lake City Intl
United States
More flights between these airports :: More routes between these airports
Route: +ZEFFR6 BLKJK LLC BAM J154 BVL WAATS5
File this flight plan on PilotEdge
Remarks:
Altitude:
(Current/Filed)
45,000ft
Speed:
(Current/Filed)
450kts
Departed: 20-Apr-18 10:40 AM
Arrived: 20-Apr-18 11:56 AM
Distance/Time
Traveled:
366nm/1:16
Distance/Time
To Go:
Arrived

Flight Plot

Page will automatically refresh every two minutes.

Flight plan parsing failed; only flown route is shown


Map Options




Map Legend


Flown Route
Filed Route
Departure Airport
Arrival Airport
Navaid (VOR, NDB)
Fix

Horizontal Profiles

Position Reports

Time Latitude Longitude Heading Altitude Ground
Speed
20-Apr-18 10:19 39.505686 -119.765242 271 4417ft 0kts
20-Apr-18 10:20 39.505686 -119.765242 271 4417ft 0kts
20-Apr-18 10:21 39.505686 -119.765242 271 4417ft 0kts
20-Apr-18 10:22 39.505686 -119.765242 271 4417ft 0kts
20-Apr-18 10:23 39.505686 -119.765242 270 4417ft 0kts
20-Apr-18 10:24 39.505686 -119.765243 270 4417ft 0kts
20-Apr-18 10:25 39.505686 -119.765243 270 4417ft 0kts
20-Apr-18 10:26 39.505686 -119.765244 270 4417ft 0kts
20-Apr-18 10:27 39.505686 -119.765244 270 4417ft 0kts
20-Apr-18 10:28 39.505686 -119.765245 270 4417ft 0kts
20-Apr-18 10:29 39.505686 -119.765246 270 4417ft 0kts
20-Apr-18 10:30 39.505686 -119.765247 270 4417ft 0kts
20-Apr-18 10:31 39.505686 -119.765248 270 4417ft 0kts
20-Apr-18 10:32 39.505686 -119.765249 270 4417ft 0kts
20-Apr-18 10:33 39.505686 -119.765251 270 4417ft 0kts
20-Apr-18 10:34 39.505691 -119.765355 281 4418ft 4kts
20-Apr-18 10:35 39.509158 -119.765808 0 4418ft 14kts
20-Apr-18 10:36 39.512695 -119.765194 2 4418ft 16kts
20-Apr-18 10:37 39.513636 -119.765454 285 4417ft 0kts
20-Apr-18 10:38 39.513656 -119.766006 258 4418ft 15kts
20-Apr-18 10:39 39.485541 -119.767689 180 5815ft 200kts
20-Apr-18 10:40 39.424757 -119.768523 176 11766ft 236kts
20-Apr-18 10:41 39.355809 -119.769311 181 16504ft 260kts
20-Apr-18 10:42 39.298827 -119.720638 107 20486ft 264kts
20-Apr-18 10:43 39.288682 -119.630701 56 23881ft 255kts
20-Apr-18 10:44 39.328936 -119.555279 39 26959ft 260kts
20-Apr-18 10:45 39.375833 -119.483311 34 29492ft 262kts
20-Apr-18 10:46 39.428709 -119.419136 33 31920ft 264kts
20-Apr-18 10:47 39.482351 -119.356113 16 34059ft 255kts
20-Apr-18 10:48 39.535524 -119.295172 31 35294ft 256kts
20-Apr-18 10:49 39.589097 -119.230542 30 36187ft 279kts
20-Apr-18 10:50 39.652359 -119.158430 35 35992ft 312kts
20-Apr-18 10:51 39.716315 -119.087088 31 36399ft 327kts
20-Apr-18 10:52 39.775288 -118.995245 41 37310ft 346kts
20-Apr-18 10:53 39.844784 -118.910240 13 38809ft 330kts
20-Apr-18 10:54 39.916886 -118.836969 34 40258ft 322kts
20-Apr-18 10:55 39.980674 -118.759486 34 40094ft 318kts
20-Apr-18 10:56 40.043974 -118.677812 39 40559ft 322kts
20-Apr-18 10:57 40.106962 -118.594349 36 41632ft 320kts
20-Apr-18 10:58 40.145232 -118.486898 74 41995ft 361kts
20-Apr-18 10:59 40.174129 -118.368924 59 43095ft 339kts
20-Apr-18 11:00 40.213111 -118.253086 60 43312ft 362kts
20-Apr-18 11:01 40.250395 -118.124218 63 43311ft 395kts
20-Apr-18 11:02 40.288184 -117.983331 64 43309ft 425kts
20-Apr-18 11:03 40.328866 -117.832614 65 43301ft 449kts
20-Apr-18 11:04 40.371853 -117.676369 65 43299ft 465kts
20-Apr-18 11:05 40.417025 -117.521998 26 43616ft 398kts
20-Apr-18 11:06 40.453756 -117.380697 69 43275ft 421kts
20-Apr-18 11:07 40.492139 -117.240416 33 43238ft 366kts
20-Apr-18 11:08 40.529438 -117.136786 30 42699ft 267kts
20-Apr-18 11:09 40.553421 -117.003983 71 39293ft 434kts
20-Apr-18 11:10 40.574986 -116.843396 80 39277ft 458kts
20-Apr-18 11:11 40.584278 -116.677099 77 39286ft 452kts
20-Apr-18 11:12 40.594561 -116.513145 78 39284ft 448kts
20-Apr-18 11:13 40.604091 -116.350339 78 39276ft 445kts
20-Apr-18 11:14 40.613472 -116.187808 78 39261ft 443kts
20-Apr-18 11:15 40.622635 -116.026751 78 39246ft 441kts
20-Apr-18 11:16 40.631385 -115.865717 78 39232ft 439kts
20-Apr-18 11:17 40.639882 -115.705898 78 39222ft 436kts
20-Apr-18 11:18 40.647914 -115.548867 78 39218ft 425kts
20-Apr-18 11:19 40.655688 -115.394568 78 39215ft 417kts
20-Apr-18 11:20 40.663155 -115.243631 78 39209ft 410kts
20-Apr-18 11:21 40.670315 -115.094892 78 39196ft 404kts
20-Apr-18 11:22 40.677205 -114.947610 78 39180ft 400kts
20-Apr-18 11:23 40.683841 -114.802298 78 39140ft 396kts
20-Apr-18 11:24 40.690210 -114.658171 78 39129ft 392kts
20-Apr-18 11:25 40.696360 -114.514894 78 39120ft 389kts
20-Apr-18 11:26 40.702274 -114.373159 78 39110ft 386kts
20-Apr-18 11:27 40.708140 -114.230443 79 38284ft 406kts
20-Apr-18 11:28 40.714265 -114.074883 79 36587ft 439kts
20-Apr-18 11:29 40.720459 -113.912236 79 34897ft 438kts
20-Apr-18 11:30 40.726077 -113.756092 79 33191ft 413kts
20-Apr-18 11:31 40.726284 -113.603369 82 31500ft 428kts
20-Apr-18 11:32 40.725801 -113.443438 83 29817ft 437kts
20-Apr-18 11:33 40.725138 -113.295556 84 28096ft 375kts
20-Apr-18 11:34 40.724559 -113.164539 84 26390ft 343kts
20-Apr-18 11:35 40.723845 -113.041758 85 23588ft 333kts
20-Apr-18 11:36 40.723013 -112.922377 85 20511ft 312kts
20-Apr-18 11:37 40.722014 -112.810190 86 17259ft 308kts
20-Apr-18 11:38 40.721233 -112.697581 86 14609ft 305kts
20-Apr-18 11:39 40.720155 -112.593593 86 13991ft 253kts
20-Apr-18 11:40 40.719209 -112.507240 86 13762ft 229kts
20-Apr-18 11:41 40.716915 -112.435578 87 13125ft 248kts
20-Apr-18 11:42 40.713250 -112.341977 88 12227ft 241kts
20-Apr-18 11:43 40.711267 -112.257538 86 12035ft 214kts
20-Apr-18 11:44 40.714069 -112.178770 82 12044ft 226kts
20-Apr-18 11:45 40.754414 -112.109534 26 12041ft 273kts
20-Apr-18 11:46 40.821563 -112.100515 354 11993ft 228kts
20-Apr-18 11:47 40.884327 -112.113465 352 11030ft 225kts
20-Apr-18 11:48 40.946272 -112.125492 356 10005ft 225kts
20-Apr-18 11:49 40.977545 -112.064250 86 8849ft 236kts
20-Apr-18 11:50 40.958927 -111.982542 142 7134ft 250kts
20-Apr-18 11:51 40.895596 -111.960527 179 6090ft 214kts
20-Apr-18 11:52 40.835997 -111.962034 178 4888ft 170kts
20-Apr-18 11:53 40.801861 -111.962116 178 4330ft 135kts
20-Apr-18 11:54 40.778196 -111.962103 179 4230ft 41kts
20-Apr-18 11:55 40.776604 -111.959283 108 4230ft 13kts
20-Apr-18 11:56 40.776482 -111.958990 142 4230ft 0kts
20-Apr-18 11:57 40.776482 -111.958990 142 4230ft 0kts
20-Apr-18 11:58 40.776482 -111.958990 142 4230ft 0kts
20-Apr-18 11:59 40.776482 -111.958990 142 4230ft 0kts

Navigation Log

Ident Type
Flight plan parsing failed, navigation log unavailable